sensor_id;sensor_type;location;lat;lon;timestamp;pressure;altitude;pressure_sealevel;temperature;humidity
36242;BME280;22283;42.748;12.732;2023-05-22T00:00:50;97633.03;;;15.27;100.00
36242;BME280;22283;42.748;12.732;2023-05-22T00:05:54;97625.34;;;15.24;100.00
36242;BME280;22283;42.748;12.732;2023-05-22T00:10:58;97625.97;;;15.18;100.00
36242;BME280;22283;42.748;12.732;2023-05-22T00:15:58;97627.03;;;15.25;100.00
36242;BME280;22283;42.748;12.732;2023-05-22T00:20:59;97628.19;;;15.22;100.00
36242;BME280;22283;42.748;12.732;2023-05-22T00:26:00;97623.72;;;15.05;100.00
36242;BME280;22283;42.748;12.732;2023-05-22T00:31:00;97622.47;;;14.99;100.00
36242;BME280;22283;42.748;12.732;2023-05-22T00:36:01;97627.25;;;14.96;100.00
36242;BME280;22283;42.748;12.732;2023-05-22T00:41:04;97619.69;;;15.01;100.00
36242;BME280;22283;42.748;12.732;2023-05-22T00:46:06;97619.97;;;14.98;100.00
36242;BME280;22283;42.748;12.732;2023-05-22T00:51:09;97603.84;;;14.82;100.00
36242;BME280;22283;42.748;12.732;2023-05-22T00:56:10;97616.16;;;14.83;100.00
36242;BME280;22283;42.748;12.732;2023-05-22T01:01:11;97616.38;;;14.71;100.00
36242;BME280;22283;42.748;12.732;2023-05-22T01:06:15;97619.31;;;14.68;100.00
36242;BME280;22283;42.748;12.732;2023-05-22T01:11:31;97621.31;;;14.66;100.00
36242;BME280;22283;42.748;12.732;2023-05-22T01:22:20;97621.78;;;14.62;100.00
36242;BME280;22283;42.748;12.732;2023-05-22T01:28:00;97615.44;;;14.63;100.00
36242;BME280;22283;42.748;12.732;2023-05-22T01:33:02;97627.47;;;14.67;100.00
36242;BME280;22283;42.748;12.732;2023-05-22T01:38:06;97627.03;;;14.71;100.00
36242;BME280;22283;42.748;12.732;2023-05-22T01:43:07;97631.44;;;14.81;100.00
36242;BME280;22283;42.748;12.732;2023-05-22T01:48:08;97633.47;;;14.69;100.00
36242;BME280;22283;42.748;12.732;2023-05-22T01:53:32;97633.84;;;14.56;100.00
36242;BME280;22283;42.748;12.732;2023-05-22T01:58:58;97629.28;;;14.39;100.00
36242;BME280;22283;42.748;12.732;2023-05-22T02:04:01;97632.16;;;14.27;100.00
36242;BME280;22283;42.748;12.732;2023-05-22T02:09:02;97631.94;;;14.11;100.00
36242;BME280;22283;42.748;12.732;2023-05-22T02:14:03;97609.47;;;13.96;100.00
36242;BME280;22283;42.748;12.732;2023-05-22T02:19:04;97610.91;;;13.90;100.00
36242;BME280;22283;42.748;12.732;2023-05-22T02:24:09;97618.34;;;13.77;100.00
36242;BME280;22283;42.748;12.732;2023-05-22T02:29:09;97611.63;;;13.73;100.00
36242;BME280;22283;42.748;12.732;2023-05-22T02:34:12;97620.88;;;13.78;100.00
36242;BME280;22283;42.748;12.732;2023-05-22T02:39:12;97604.69;;;13.62;100.00
36242;BME280;22283;42.748;12.732;2023-05-22T02:44:13;97608.03;;;13.64;100.00
36242;BME280;22283;42.748;12.732;2023-05-22T02:49:13;97614.78;;;13.59;100.00
36242;BME280;22283;42.748;12.732;2023-05-22T02:54:14;97616.75;;;13.47;100.00
36242;BME280;22283;42.748;12.732;2023-05-22T02:59:15;97618.41;;;13.38;100.00
36242;BME280;22283;42.748;12.732;2023-05-22T03:04:16;97629.91;;;13.39;100.00
36242;BME280;22283;42.748;12.732;2023-05-22T03:09:16;97612.44;;;13.26;100.00
36242;BME280;22283;42.748;12.732;2023-05-22T03:14:19;97625.97;;;13.33;100.00
36242;BME280;22283;42.748;12.732;2023-05-22T03:19:22;97623.22;;;13.35;100.00
36242;BME280;22283;42.748;12.732;2023-05-22T03:24:22;97623.75;;;13.28;100.00
36242;BME280;22283;42.748;12.732;2023-05-22T03:29:23;97611.41;;;13.18;100.00
36242;BME280;22283;42.748;12.732;2023-05-22T03:34:24;97629.34;;;13.35;100.00
36242;BME280;22283;42.748;12.732;2023-05-22T03:39:26;97639.16;;;13.35;100.00
36242;BME280;22283;42.748;12.732;2023-05-22T03:44:35;97626.69;;;13.25;100.00
36242;BME280;22283;42.748;12.732;2023-05-22T03:49:35;97638.13;;;13.16;100.00
36242;BME280;22283;42.748;12.732;2023-05-22T03:54:38;97640.22;;;13.22;100.00
36242;BME280;22283;42.748;12.732;2023-05-22T03:59:39;97649.78;;;13.35;100.00
36242;BME280;22283;42.748;12.732;2023-05-22T04:04:40;97658.16;;;13.40;100.00
36242;BME280;22283;42.748;12.732;2023-05-22T04:09:41;97667.53;;;13.44;100.00
36242;BME280;22283;42.748;12.732;2023-05-22T04:14:41;97674.63;;;13.53;100.00
36242;BME280;22283;42.748;12.732;2023-05-22T04:19:42;97665.91;;;13.90;100.00
36242;BME280;22283;42.748;12.732;2023-05-22T04:24:42;97665.94;;;15.18;100.00
36242;BME280;22283;42.748;12.732;2023-05-22T04:29:43;97659.94;;;16.30;96.41
36242;BME280;22283;42.748;12.732;2023-05-22T04:34:47;97663.03;;;17.10;88.23
36242;BME280;22283;42.748;12.732;2023-05-22T04:39:49;97658.06;;;17.23;87.09
36242;BME280;22283;42.748;12.732;2023-05-22T04:44:52;97653.72;;;18.51;76.83
36242;BME280;22283;42.748;12.732;2023-05-22T04:49:53;97656.47;;;19.51;69.58
36242;BME280;22283;42.748;12.732;2023-05-22T04:54:56;97666.94;;;20.66;63.45
36242;BME280;22283;42.748;12.732;2023-05-22T04:59:56;97667.69;;;20.75;65.42
36242;BME280;22283;42.748;12.732;2023-05-22T05:04:57;97672.16;;;21.61;61.61
36242;BME280;22283;42.748;12.732;2023-05-22T05:09:58;97661.59;;;22.38;57.19
36242;BME280;22283;42.748;12.732;2023-05-22T05:14:58;97661.00;;;22.14;58.75
36242;BME280;22283;42.748;12.732;2023-05-22T05:19:59;97658.88;;;23.40;54.05
36242;BME280;22283;42.748;12.732;2023-05-22T05:24:59;97665.81;;;23.89;51.19
36242;BME280;22283;42.748;12.732;2023-05-22T05:30:01;97663.72;;;24.04;50.99
36242;BME280;22283;42.748;12.732;2023-05-22T05:35:22;97670.38;;;23.82;51.79
36242;BME280;22283;42.748;12.732;2023-05-22T05:40:32;97663.47;;;24.26;51.95
36242;BME280;22283;42.748;12.732;2023-05-22T05:45:33;97653.97;;;24.82;49.13
36242;BME280;22283;42.748;12.732;2023-05-22T05:50:34;97655.00;;;23.76;49.72
36242;BME280;22283;42.748;12.732;2023-05-22T05:55:35;97647.06;;;22.10;54.03
36242;BME280;22283;42.748;12.732;2023-05-22T06:00:37;97657.78;;;21.11;59.84
36242;BME280;22283;42.748;12.732;2023-05-22T06:05:38;97659.34;;;20.55;64.62
36242;BME280;22283;42.748;12.732;2023-05-22T06:10:55;97663.38;;;20.06;69.38
36242;BME280;22283;42.748;12.732;2023-05-22T06:16:19;97676.38;;;20.32;69.03
36242;BME280;22283;42.748;12.732;2023-05-22T06:21:20;97674.53;;;20.48;66.69
36242;BME280;22283;42.748;12.732;2023-05-22T06:26:20;97673.34;;;20.50;63.31
36242;BME280;22283;42.748;12.732;2023-05-22T06:31:24;97667.81;;;20.52;60.91
36242;BME280;22283;42.748;12.732;2023-05-22T06:36:28;97659.31;;;20.84;59.48
36242;BME280;22283;42.748;12.732;2023-05-22T06:41:29;97661.66;;;21.67;57.23
36242;BME280;22283;42.748;12.732;2023-05-22T06:46:31;97666.75;;;22.74;51.43
36242;BME280;22283;42.748;12.732;2023-05-22T06:51:36;97671.94;;;23.30;50.15
36242;BME280;22283;42.748;12.732;2023-05-22T06:56:41;97667.00;;;23.40;48.28
36242;BME280;22283;42.748;12.732;2023-05-22T07:01:45;97661.56;;;23.47;48.01
36242;BME280;22283;42.748;12.732;2023-05-22T07:06:50;97670.56;;;24.14;48.50
36242;BME280;22283;42.748;12.732;2023-05-22T07:11:52;97657.00;;;24.27;47.01
36242;BME280;22283;42.748;12.732;2023-05-22T07:16:54;97660.34;;;24.42;49.65
36242;BME280;22283;42.748;12.732;2023-05-22T07:22:00;97668.50;;;24.16;51.59
36242;BME280;22283;42.748;12.732;2023-05-22T07:27:02;97672.41;;;23.53;52.70
36242;BME280;22283;42.748;12.732;2023-05-22T07:32:04;97669.53;;;23.68;52.92
36242;BME280;22283;42.748;12.732;2023-05-22T07:37:07;97674.06;;;23.61;51.39
36242;BME280;22283;42.748;12.732;2023-05-22T07:42:08;97673.28;;;23.74;52.06
36242;BME280;22283;42.748;12.732;2023-05-22T07:47:16;97677.22;;;23.91;49.56
36242;BME280;22283;42.748;12.732;2023-05-22T07:52:17;97668.72;;;23.81;49.80
36242;BME280;22283;42.748;12.732;2023-05-22T07:57:18;97679.09;;;23.77;49.71
36242;BME280;22283;42.748;12.732;2023-05-22T08:02:19;97659.97;;;23.66;49.51
36242;BME280;22283;42.748;12.732;2023-05-22T08:07:20;97666.41;;;23.91;46.96
36242;BME280;22283;42.748;12.732;2023-05-22T08:12:20;97661.22;;;24.10;47.52
36242;BME280;22283;42.748;12.732;2023-05-22T08:17:21;97657.06;;;23.74;49.21
36242;BME280;22283;42.748;12.732;2023-05-22T08:22:22;97661.44;;;24.01;50.23
36242;BME280;22283;42.748;12.732;2023-05-22T08:27:22;97663.31;;;24.01;50.95
36242;BME280;22283;42.748;12.732;2023-05-22T08:32:23;97667.41;;;23.64;52.14
36242;BME280;22283;42.748;12.732;2023-05-22T08:37:24;97663.66;;;23.38;54.04
36242;BME280;22283;42.748;12.732;2023-05-22T08:42:24;97648.09;;;23.40;52.39
36242;BME280;22283;42.748;12.732;2023-05-22T08:47:25;97658.69;;;23.48;52.99
36242;BME280;22283;42.748;12.732;2023-05-22T08:52:33;97647.91;;;23.62;52.08
36242;BME280;22283;42.748;12.732;2023-05-22T08:57:35;97648.97;;;23.74;52.63
36242;BME280;22283;42.748;12.732;2023-05-22T09:02:37;97650.56;;;23.35;53.20
36242;BME280;22283;42.748;12.732;2023-05-22T09:07:38;97648.91;;;23.47;53.37
36242;BME280;22283;42.748;12.732;2023-05-22T09:13:05;97648.25;;;23.32;54.21
36242;BME280;22283;42.748;12.732;2023-05-22T09:18:10;97655.94;;;23.35;53.29
36242;BME280;22283;42.748;12.732;2023-05-22T09:23:12;97654.50;;;23.26;53.14
36242;BME280;22283;42.748;12.732;2023-05-22T09:28:14;97650.16;;;23.38;53.93
36242;BME280;22283;42.748;12.732;2023-05-22T09:33:14;97643.34;;;24.09;53.61
36242;BME280;22283;42.748;12.732;2023-05-22T09:38:16;97649.03;;;24.72;50.01
36242;BME280;22283;42.748;12.732;2023-05-22T09:43:16;97643.56;;;24.85;50.66
36242;BME280;22283;42.748;12.732;2023-05-22T09:48:18;97647.31;;;24.91;47.80
36242;BME280;22283;42.748;12.732;2023-05-22T09:53:25;97640.97;;;25.03;48.01
36242;BME280;22283;42.748;12.732;2023-05-22T09:58:29;97625.97;;;25.08;47.02
36242;BME280;22283;42.748;12.732;2023-05-22T10:03:30;97630.69;;;24.74;48.00
36242;BME280;22283;42.748;12.732;2023-05-22T10:08:39;97620.16;;;25.04;48.92
36242;BME280;22283;42.748;12.732;2023-05-22T10:13:41;97616.66;;;25.35;46.30
36242;BME280;22283;42.748;12.732;2023-05-22T10:18:44;97611.94;;;25.56;45.33
36242;BME280;22283;42.748;12.732;2023-05-22T10:23:48;97605.13;;;25.96;45.94
36242;BME280;22283;42.748;12.732;2023-05-22T10:28:59;97603.84;;;26.61;44.00
36242;BME280;22283;42.748;12.732;2023-05-22T10:34:06;97592.66;;;26.87;43.74
36242;BME280;22283;42.748;12.732;2023-05-22T10:44:20;97571.28;;;26.61;42.34
36242;BME280;22283;42.748;12.732;2023-05-22T10:49:22;97566.34;;;26.88;41.55
36242;BME280;22283;42.748;12.732;2023-05-22T10:54:42;97573.28;;;26.54;41.18
36242;BME280;22283;42.748;12.732;2023-05-22T10:59:46;97558.53;;;27.10;39.67
36242;BME280;22283;42.748;12.732;2023-05-22T11:04:47;97549.72;;;27.14;40.03
36242;BME280;22283;42.748;12.732;2023-05-22T11:09:48;97564.88;;;27.34;40.46
36242;BME280;22283;42.748;12.732;2023-05-22T11:14:53;97556.84;;;26.48;40.67
36242;BME280;22283;42.748;12.732;2023-05-22T11:20:17;97554.09;;;25.93;41.57
36242;BME280;22283;42.748;12.732;2023-05-22T11:25:19;97553.53;;;24.71;45.45
36242;BME280;22283;42.748;12.732;2023-05-22T11:30:23;97547.81;;;24.48;49.96
36242;BME280;22283;42.748;12.732;2023-05-22T11:35:24;97561.38;;;24.28;49.06
36242;BME280;22283;42.748;12.732;2023-05-22T11:40:26;97549.13;;;24.19;49.25
36242;BME280;22283;42.748;12.732;2023-05-22T11:45:28;97545.47;;;24.96;48.65
36242;BME280;22283;42.748;12.732;2023-05-22T11:50:29;97518.28;;;25.91;47.87
36242;BME280;22283;42.748;12.732;2023-05-22T11:55:32;97520.03;;;26.71;44.43
36242;BME280;22283;42.748;12.732;2023-05-22T12:00:32;97507.34;;;26.35;46.87
36242;BME280;22283;42.748;12.732;2023-05-22T12:05:33;97516.09;;;26.00;45.97
36242;BME280;22283;42.748;12.732;2023-05-22T12:10:34;97512.63;;;26.11;45.89
36242;BME280;22283;42.748;12.732;2023-05-22T12:15:34;97525.34;;;26.11;46.51
36242;BME280;22283;42.748;12.732;2023-05-22T12:20:41;97525.50;;;26.16;45.34
36242;BME280;22283;42.748;12.732;2023-05-22T12:26:02;97537.53;;;26.57;46.13
36242;BME280;22283;42.748;12.732;2023-05-22T12:31:03;97524.75;;;26.45;49.19
36242;BME280;22283;42.748;12.732;2023-05-22T12:36:07;97542.22;;;25.94;54.08
36242;BME280;22283;42.748;12.732;2023-05-22T12:41:08;97545.47;;;25.28;56.63
36242;BME280;22283;42.748;12.732;2023-05-22T12:46:09;97564.34;;;24.07;61.79
36242;BME280;22283;42.748;12.732;2023-05-22T12:51:10;97579.72;;;23.20;66.54
36242;BME280;22283;42.748;12.732;2023-05-22T12:56:10;97564.03;;;22.69;67.94
36242;BME280;22283;42.748;12.732;2023-05-22T13:01:11;97574.91;;;22.34;69.83
36242;BME280;22283;42.748;12.732;2023-05-22T13:06:12;97577.75;;;21.91;76.64
36242;BME280;22283;42.748;12.732;2023-05-22T13:11:13;97548.63;;;21.45;81.00
36242;BME280;22283;42.748;12.732;2023-05-22T13:16:13;97559.97;;;21.19;83.60
36242;BME280;22283;42.748;12.732;2023-05-22T13:21:14;97575.59;;;21.09;84.04
36242;BME280;22283;42.748;12.732;2023-05-22T13:26:15;97587.19;;;20.88;87.56
36242;BME280;22283;42.748;12.732;2023-05-22T13:31:15;97606.72;;;20.60;91.35
36242;BME280;22283;42.748;12.732;2023-05-22T13:36:17;97611.06;;;20.61;92.47
36242;BME280;22283;42.748;12.732;2023-05-22T13:41:17;97610.81;;;20.56;86.39
36242;BME280;22283;42.748;12.732;2023-05-22T13:46:20;97606.25;;;20.72;87.33
36242;BME280;22283;42.748;12.732;2023-05-22T13:51:21;97614.31;;;20.93;88.41
36242;BME280;22283;42.748;12.732;2023-05-22T13:56:22;97612.66;;;20.92;88.37
36242;BME280;22283;42.748;12.732;2023-05-22T14:01:22;97597.69;;;21.04;84.31
36242;BME280;22283;42.748;12.732;2023-05-22T14:06:23;97596.84;;;21.25;80.24
36242;BME280;22283;42.748;12.732;2023-05-22T14:11:23;97567.97;;;21.55;77.94
36242;BME280;22283;42.748;12.732;2023-05-22T14:16:24;97553.25;;;22.21;79.49
36242;BME280;22283;42.748;12.732;2023-05-22T14:21:24;97563.94;;;22.97;69.77
36242;BME280;22283;42.748;12.732;2023-05-22T14:26:25;97570.19;;;23.24;60.75
36242;BME280;22283;42.748;12.732;2023-05-22T14:31:26;97560.03;;;23.52;57.19
36242;BME280;22283;42.748;12.732;2023-05-22T14:36:28;97564.59;;;23.92;56.38
36242;BME280;22283;42.748;12.732;2023-05-22T14:41:28;97553.34;;;24.01;53.93
36242;BME280;22283;42.748;12.732;2023-05-22T14:46:29;97554.84;;;23.71;58.84
36242;BME280;22283;42.748;12.732;2023-05-22T14:51:30;97550.25;;;23.31;55.75
36242;BME280;22283;42.748;12.732;2023-05-22T14:56:31;97539.28;;;23.13;61.11
36242;BME280;22283;42.748;12.732;2023-05-22T15:01:31;97536.97;;;23.03;61.81
36242;BME280;22283;42.748;12.732;2023-05-22T15:06:32;97534.06;;;23.05;68.65
36242;BME280;22283;42.748;12.732;2023-05-22T15:11:33;97529.09;;;23.09;78.84
36242;BME280;22283;42.748;12.732;2023-05-22T15:16:33;97519.97;;;23.10;81.34
36242;BME280;22283;42.748;12.732;2023-05-22T15:21:34;97519.03;;;22.76;84.63
36242;BME280;22283;42.748;12.732;2023-05-22T15:26:36;97530.38;;;22.51;76.90
36242;BME280;22283;42.748;12.732;2023-05-22T15:31:36;97538.03;;;22.48;75.55
36242;BME280;22283;42.748;12.732;2023-05-22T15:36:37;97523.38;;;22.64;71.21
36242;BME280;22283;42.748;12.732;2023-05-22T15:41:39;97514.13;;;23.19;63.12
36242;BME280;22283;42.748;12.732;2023-05-22T15:46:40;97522.44;;;23.71;63.31
36242;BME280;22283;42.748;12.732;2023-05-22T15:51:40;97521.00;;;24.33;60.77
36242;BME280;22283;42.748;12.732;2023-05-22T15:56:41;97510.00;;;24.41;53.53
36242;BME280;22283;42.748;12.732;2023-05-22T16:01:42;97516.19;;;24.48;61.64
36242;BME280;22283;42.748;12.732;2023-05-22T16:06:42;97530.88;;;24.66;60.53
36242;BME280;22283;42.748;12.732;2023-05-22T16:11:43;97535.41;;;24.72;61.23
36242;BME280;22283;42.748;12.732;2023-05-22T16:16:43;97540.50;;;24.55;56.02
36242;BME280;22283;42.748;12.732;2023-05-22T16:21:44;97538.06;;;24.40;60.15
36242;BME280;22283;42.748;12.732;2023-05-22T16:26:45;97548.09;;;24.20;58.90
36242;BME280;22283;42.748;12.732;2023-05-22T16:31:46;97561.91;;;23.92;59.77
36242;BME280;22283;42.748;12.732;2023-05-22T16:36:46;97569.41;;;23.70;62.37
36242;BME280;22283;42.748;12.732;2023-05-22T16:41:47;97577.03;;;23.60;64.02
36242;BME280;22283;42.748;12.732;2023-05-22T16:46:47;97578.91;;;23.26;67.10
36242;BME280;22283;42.748;12.732;2023-05-22T16:51:49;97589.03;;;23.04;68.82
36242;BME280;22283;42.748;12.732;2023-05-22T16:56:50;97599.41;;;23.00;79.32
36242;BME280;22283;42.748;12.732;2023-05-22T17:01:51;97618.81;;;22.76;84.55
36242;BME280;22283;42.748;12.732;2023-05-22T17:06:51;97615.84;;;22.57;86.13
36242;BME280;22283;42.748;12.732;2023-05-22T17:11:53;97614.13;;;22.43;86.47
36242;BME280;22283;42.748;12.732;2023-05-22T17:16:54;97614.91;;;22.37;86.96
36242;BME280;22283;42.748;12.732;2023-05-22T17:21:55;97614.19;;;22.15;84.92
36242;BME280;22283;42.748;12.732;2023-05-22T17:26:56;97628.59;;;22.07;89.54
36242;BME280;22283;42.748;12.732;2023-05-22T17:31:56;97628.97;;;21.98;90.50
36242;BME280;22283;42.748;12.732;2023-05-22T17:36:57;97636.09;;;21.84;87.81
36242;BME280;22283;42.748;12.732;2023-05-22T17:41:58;97636.91;;;21.56;91.52
36242;BME280;22283;42.748;12.732;2023-05-22T17:46:59;97648.91;;;21.18;90.93
36242;BME280;22283;42.748;12.732;2023-05-22T17:52:00;97651.16;;;20.78;91.61
36242;BME280;22283;42.748;12.732;2023-05-22T17:57:01;97657.69;;;20.54;90.19
36242;BME280;22283;42.748;12.732;2023-05-22T18:02:05;97657.31;;;20.12;91.61
36242;BME280;22283;42.748;12.732;2023-05-22T18:07:25;97666.19;;;19.75;95.79
36242;BME280;22283;42.748;12.732;2023-05-22T18:12:26;97664.84;;;19.56;97.36
36242;BME280;22283;42.748;12.732;2023-05-22T18:17:26;97669.72;;;19.30;99.13
36242;BME280;22283;42.748;12.732;2023-05-22T18:22:27;97671.22;;;19.09;96.49
36242;BME280;22283;42.748;12.732;2023-05-22T18:27:28;97678.97;;;18.96;96.31
36242;BME280;22283;42.748;12.732;2023-05-22T18:32:29;97690.84;;;18.71;97.29
36242;BME280;22283;42.748;12.732;2023-05-22T18:37:30;97693.25;;;18.49;97.63
36242;BME280;22283;42.748;12.732;2023-05-22T18:42:31;97707.31;;;18.43;97.80
36242;BME280;22283;42.748;12.732;2023-05-22T18:47:32;97695.00;;;18.26;99.71
36242;BME280;22283;42.748;12.732;2023-05-22T18:52:32;97703.41;;;18.06;99.41
36242;BME280;22283;42.748;12.732;2023-05-22T18:57:34;97701.06;;;17.95;100.00
36242;BME280;22283;42.748;12.732;2023-05-22T19:02:35;97709.09;;;17.87;100.00
36242;BME280;22283;42.748;12.732;2023-05-22T19:07:35;97711.41;;;17.74;100.00
36242;BME280;22283;42.748;12.732;2023-05-22T19:12:36;97717.44;;;17.67;100.00
36242;BME280;22283;42.748;12.732;2023-05-22T19:17:37;97724.13;;;17.63;100.00
36242;BME280;22283;42.748;12.732;2023-05-22T19:22:37;97726.41;;;17.42;100.00
36242;BME280;22283;42.748;12.732;2023-05-22T19:27:38;97731.09;;;17.24;100.00
36242;BME280;22283;42.748;12.732;2023-05-22T19:32:39;97743.22;;;17.02;100.00
36242;BME280;22283;42.748;12.732;2023-05-22T19:37:39;97748.41;;;17.03;100.00
36242;BME280;22283;42.748;12.732;2023-05-22T19:42:40;97762.91;;;17.01;100.00
36242;BME280;22283;42.748;12.732;2023-05-22T19:47:41;97757.97;;;17.22;100.00
36242;BME280;22283;42.748;12.732;2023-05-22T19:52:41;97767.16;;;17.11;100.00
36242;BME280;22283;42.748;12.732;2023-05-22T19:57:43;97774.13;;;17.04;100.00
36242;BME280;22283;42.748;12.732;2023-05-22T20:02:43;97784.13;;;17.02;100.00
36242;BME280;22283;42.748;12.732;2023-05-22T20:07:44;97769.31;;;16.74;100.00
36242;BME280;22283;42.748;12.732;2023-05-22T20:12:46;97784.97;;;16.68;100.00
36242;BME280;22283;42.748;12.732;2023-05-22T20:17:47;97798.56;;;16.75;100.00
36242;BME280;22283;42.748;12.732;2023-05-22T20:22:51;97816.25;;;16.76;100.00
36242;BME280;22283;42.748;12.732;2023-05-22T20:27:53;97814.13;;;16.62;100.00
36242;BME280;22283;42.748;12.732;2023-05-22T20:32:53;97847.66;;;16.56;100.00
36242;BME280;22283;42.748;12.732;2023-05-22T20:37:54;97842.63;;;16.53;100.00
36242;BME280;22283;42.748;12.732;2023-05-22T20:42:55;97843.81;;;16.33;100.00
36242;BME280;22283;42.748;12.732;2023-05-22T20:47:56;97846.13;;;16.28;100.00
36242;BME280;22283;42.748;12.732;2023-05-22T20:52:57;97852.38;;;16.18;100.00
36242;BME280;22283;42.748;12.732;2023-05-22T20:57:59;97845.28;;;16.09;100.00
36242;BME280;22283;42.748;12.732;2023-05-22T21:03:00;97861.00;;;16.12;100.00
36242;BME280;22283;42.748;12.732;2023-05-22T21:08:01;97854.44;;;16.07;100.00
36242;BME280;22283;42.748;12.732;2023-05-22T21:13:02;97858.25;;;16.04;100.00
36242;BME280;22283;42.748;12.732;2023-05-22T21:18:04;97870.91;;;16.02;100.00
36242;BME280;22283;42.748;12.732;2023-05-22T21:23:05;97859.16;;;15.95;100.00
36242;BME280;22283;42.748;12.732;2023-05-22T21:28:06;97868.47;;;15.91;100.00
36242;BME280;22283;42.748;12.732;2023-05-22T21:33:07;97871.00;;;15.92;100.00
36242;BME280;22283;42.748;12.732;2023-05-22T21:38:07;97858.19;;;15.78;100.00
36242;BME280;22283;42.748;12.732;2023-05-22T21:43:08;97851.75;;;15.71;100.00
36242;BME280;22283;42.748;12.732;2023-05-22T21:48:09;97866.00;;;15.80;100.00
36242;BME280;22283;42.748;12.732;2023-05-22T21:53:09;97853.13;;;15.75;100.00
36242;BME280;22283;42.748;12.732;2023-05-22T21:58:10;97869.38;;;15.82;100.00
36242;BME280;22283;42.748;12.732;2023-05-22T22:03:11;97870.31;;;15.72;100.00
36242;BME280;22283;42.748;12.732;2023-05-22T22:08:12;97871.59;;;15.59;100.00
36242;BME280;22283;42.748;12.732;2023-05-22T22:13:13;97867.84;;;15.52;100.00
36242;BME280;22283;42.748;12.732;2023-05-22T22:18:14;97872.97;;;15.45;100.00
36242;BME280;22283;42.748;12.732;2023-05-22T22:23:15;97869.41;;;15.27;100.00
36242;BME280;22283;42.748;12.732;2023-05-22T22:28:15;97873.44;;;15.03;100.00
36242;BME280;22283;42.748;12.732;2023-05-22T22:33:16;97872.13;;;14.80;100.00
36242;BME280;22283;42.748;12.732;2023-05-22T22:38:17;97877.19;;;14.73;100.00
36242;BME280;22283;42.748;12.732;2023-05-22T22:43:17;97884.63;;;14.69;100.00
36242;BME280;22283;42.748;12.732;2023-05-22T22:48:18;97884.91;;;14.66;100.00
36242;BME280;22283;42.748;12.732;2023-05-22T22:53:21;97890.41;;;14.55;100.00
36242;BME280;22283;42.748;12.732;2023-05-22T22:58:22;97886.75;;;14.46;100.00
36242;BME280;22283;42.748;12.732;2023-05-22T23:03:23;97890.94;;;14.49;100.00
36242;BME280;22283;42.748;12.732;2023-05-22T23:08:23;97888.72;;;14.35;100.00
36242;BME280;22283;42.748;12.732;2023-05-22T23:13:24;97879.19;;;14.22;100.00
36242;BME280;22283;42.748;12.732;2023-05-22T23:18:25;97879.19;;;14.32;100.00
36242;BME280;22283;42.748;12.732;2023-05-22T23:23:25;97877.78;;;14.28;100.00
36242;BME280;22283;42.748;12.732;2023-05-22T23:28:27;97869.97;;;14.26;100.00
36242;BME280;22283;42.748;12.732;2023-05-22T23:33:27;97838.19;;;14.15;100.00
36242;BME280;22283;42.748;12.732;2023-05-22T23:38:28;97870.22;;;14.33;100.00
36242;BME280;22283;42.748;12.732;2023-05-22T23:43:28;97872.03;;;14.13;100.00
36242;BME280;22283;42.748;12.732;2023-05-22T23:48:29;97875.16;;;13.99;100.00
36242;BME280;22283;42.748;12.732;2023-05-22T23:53:30;97879.75;;;13.87;100.00
36242;BME280;22283;42.748;12.732;2023-05-22T23:58:31;97847.00;;;13.67;100.00
